createdAt,value
2022-07-28T00:01:09.623Z,20.25
2022-07-28T00:03:36.309Z,20.25
2022-07-28T00:06:09.455Z,20.18
2022-07-28T00:08:49.643Z,20.20
2022-07-28T00:11:22.742Z,20.18
2022-07-28T00:13:56.599Z,20.14
2022-07-28T00:16:29.493Z,20.13
2022-07-28T00:19:02.508Z,20.04
2022-07-28T00:21:29.485Z,20.12
2022-07-28T00:24:02.456Z,20.12
2022-07-28T00:26:29.219Z,20.12
2022-07-28T00:29:02.439Z,20.14
2022-07-28T00:31:29.180Z,20.10
2022-07-28T00:34:02.432Z,20.10
2022-07-28T00:36:35.455Z,20.11
2022-07-28T00:39:09.509Z,20.07
2022-07-28T00:41:36.619Z,20.03
2022-07-28T00:44:13.831Z,20.11
2022-07-28T00:46:41.220Z,20.02
2022-07-28T00:49:14.510Z,20.00
2022-07-28T00:51:41.555Z,19.96
2022-07-28T00:54:15.693Z,19.95
2022-07-28T00:56:43.398Z,19.87
2022-07-28T00:59:16.450Z,19.91
2022-07-28T01:01:43.401Z,19.89
2022-07-28T01:04:16.979Z,19.84
2022-07-28T01:07:05.561Z,19.88
2022-07-28T01:10:14.490Z,19.89
2022-07-28T01:12:51.315Z,19.85
2022-07-28T01:15:41.472Z,19.83
2022-07-28T01:18:20.532Z,19.79
2022-07-28T01:20:59.466Z,19.81
2022-07-28T01:23:46.263Z,19.78
2022-07-28T01:26:45.422Z,19.79
2022-07-28T01:29:27.192Z,19.75
2022-07-28T01:32:17.437Z,19.71
2022-07-28T01:34:55.962Z,19.69
2022-07-28T01:37:35.431Z,19.69
2022-07-28T01:40:07.254Z,19.66
2022-07-28T01:42:47.443Z,19.64
2022-07-28T01:45:22.440Z,19.63
2022-07-28T01:47:57.438Z,19.54
2022-07-28T01:50:33.606Z,19.50
2022-07-28T01:53:08.613Z,19.46
2022-07-28T01:55:36.391Z,19.40
2022-07-28T01:58:11.652Z,19.37
2022-07-28T02:00:39.342Z,19.28
2022-07-28T02:03:14.433Z,19.21
2022-07-28T02:05:42.500Z,19.15
2022-07-28T02:08:23.624Z,18.98
2022-07-28T02:11:17.205Z,18.91
2022-07-28T02:13:52.494Z,18.88
2022-07-28T02:16:22.957Z,18.87
2022-07-28T02:18:57.578Z,18.84
2022-07-28T02:21:26.043Z,18.77
2022-07-28T02:24:00.423Z,18.70
2022-07-28T02:26:37.995Z,18.67
2022-07-28T02:29:33.439Z,18.60
2022-07-28T02:32:26.830Z,18.52
2022-07-28T02:35:12.607Z,18.41
2022-07-28T02:37:51.598Z,18.31
2022-07-28T02:40:28.417Z,18.27
2022-07-28T02:42:58.428Z,18.22
2022-07-28T02:45:34.588Z,18.17
2022-07-28T02:48:08.122Z,18.12
2022-07-28T02:50:41.405Z,18.10
2022-07-28T02:53:15.694Z,18.03
2022-07-28T02:55:53.429Z,18.03
2022-07-28T02:58:22.689Z,18.00
2022-07-28T03:00:51.617Z,17.98
2022-07-28T03:03:25.401Z,17.99
2022-07-28T03:05:52.363Z,18.00
2022-07-28T03:08:25.410Z,18.05
2022-07-28T03:11:20.448Z,18.03
2022-07-28T03:13:47.123Z,18.05
2022-07-28T03:16:20.432Z,18.03
2022-07-28T03:18:54.443Z,18.05
2022-07-28T03:21:21.326Z,18.00
2022-07-28T03:23:58.421Z,18.06
2022-07-28T03:26:44.420Z,18.08
2022-07-28T03:29:18.407Z,18.00
2022-07-28T03:31:54.430Z,17.99
2022-07-28T03:34:28.416Z,17.94
2022-07-28T03:37:09.395Z,17.91
2022-07-28T03:39:45.238Z,17.87
2022-07-28T03:42:19.577Z,17.83
2022-07-28T03:44:47.723Z,17.80
2022-07-28T03:47:22.456Z,17.80
2022-07-28T03:49:49.498Z,17.81
2022-07-28T03:52:17.195Z,17.83
2022-07-28T03:54:51.410Z,17.78
2022-07-28T03:57:18.136Z,17.82
2022-07-28T03:59:51.409Z,17.79
2022-07-28T04:02:18.112Z,17.77
2022-07-28T04:04:51.418Z,17.76
2022-07-28T04:07:18.126Z,17.83
2022-07-28T04:10:05.423Z,17.85
2022-07-28T04:12:32.165Z,17.76
2022-07-28T04:14:58.966Z,17.79
2022-07-28T04:17:32.463Z,17.71
2022-07-28T04:19:59.111Z,17.76
2022-07-28T04:22:32.557Z,17.76
2022-07-28T04:25:06.569Z,17.76
2022-07-28T04:27:43.399Z,17.75
2022-07-28T04:30:18.950Z,17.73
2022-07-28T04:32:54.570Z,17.77
2022-07-28T04:35:24.184Z,17.73
2022-07-28T04:37:58.429Z,17.77
2022-07-28T04:40:26.806Z,17.82
2022-07-28T04:43:00.423Z,17.81
2022-07-28T04:45:27.415Z,17.84
2022-07-28T04:48:01.388Z,17.90
2022-07-28T04:50:28.161Z,17.96
2022-07-28T04:53:01.451Z,18.03
2022-07-28T04:55:28.252Z,18.08
2022-07-28T04:58:01.482Z,18.06
2022-07-28T05:00:35.593Z,18.12
2022-07-28T05:03:10.403Z,18.10
2022-07-28T05:05:37.131Z,18.13
2022-07-28T05:08:03.998Z,18.15
2022-07-28T05:10:37.404Z,18.23
2022-07-28T05:13:11.035Z,18.24
2022-07-28T05:15:44.425Z,18.32
2022-07-28T05:18:11.114Z,18.33
2022-07-28T05:20:44.399Z,18.39
2022-07-28T05:23:19.398Z,18.46
2022-07-28T05:25:52.385Z,18.49
2022-07-28T05:28:25.411Z,18.47
2022-07-28T05:30:58.413Z,18.56
2022-07-28T05:33:30.169Z,18.57
2022-07-28T05:36:05.415Z,18.57
2022-07-28T05:38:32.647Z,18.60
2022-07-28T05:41:06.390Z,18.58
2022-07-28T05:43:35.319Z,18.61
2022-07-28T05:46:08.430Z,18.66
2022-07-28T05:48:35.379Z,18.69
2022-07-28T05:51:09.422Z,18.68
2022-07-28T05:53:36.275Z,18.72
2022-07-28T05:56:10.571Z,18.75
2022-07-28T05:58:37.377Z,18.75
2022-07-28T06:01:11.421Z,18.79
2022-07-28T06:03:42.150Z,18.78
2022-07-28T06:06:17.094Z,18.79
2022-07-28T06:08:54.463Z,18.80
2022-07-28T06:11:27.537Z,18.82
2022-07-28T06:14:00.391Z,18.87
2022-07-28T06:16:27.927Z,18.91
2022-07-28T06:19:01.382Z,19.00
2022-07-28T06:21:28.191Z,19.05
2022-07-28T06:24:01.383Z,19.12
2022-07-28T06:26:28.374Z,19.17
2022-07-28T06:29:01.377Z,19.15
2022-07-28T06:31:35.419Z,19.15
2022-07-28T06:34:02.339Z,19.22
2022-07-28T06:36:35.537Z,19.32
2022-07-28T06:39:02.411Z,19.33
2022-07-28T06:41:35.394Z,19.34
2022-07-28T06:44:02.092Z,19.45
2022-07-28T06:46:35.427Z,19.47
2022-07-28T06:49:03.533Z,19.53
2022-07-28T06:51:38.518Z,19.58
2022-07-28T06:54:10.769Z,19.61
2022-07-28T06:56:38.215Z,19.63
2022-07-28T06:59:11.649Z,19.66
2022-07-28T07:01:45.381Z,19.69
2022-07-28T07:04:12.341Z,19.73
2022-07-28T07:06:46.459Z,19.76
2022-07-28T07:09:19.376Z,19.78
2022-07-28T07:11:52.779Z,19.84
2022-07-28T07:14:26.396Z,19.90
2022-07-28T07:17:00.393Z,19.92
2022-07-28T07:19:27.160Z,20.05
2022-07-28T07:22:00.562Z,20.08
2022-07-28T07:24:34.354Z,20.13
2022-07-28T07:27:07.381Z,20.12
2022-07-28T07:29:40.385Z,20.06
2022-07-28T07:32:10.690Z,20.04
2022-07-28T07:34:46.380Z,20.00
2022-07-28T07:37:14.649Z,20.07
2022-07-28T07:39:41.901Z,20.14
2022-07-28T07:42:15.356Z,20.17
2022-07-28T07:44:42.205Z,20.23
2022-07-28T07:47:24.550Z,20.28
2022-07-28T07:49:58.379Z,20.33
2022-07-28T07:52:31.403Z,20.38
2022-07-28T07:55:04.367Z,20.40
2022-07-28T07:57:31.377Z,20.49
2022-07-28T08:00:04.383Z,20.53
2022-07-28T08:02:31.149Z,20.58
2022-07-28T08:05:04.537Z,20.64
2022-07-28T08:07:31.351Z,20.65
2022-07-28T08:10:05.580Z,20.70
2022-07-28T08:12:39.517Z,20.78
2022-07-28T08:15:13.360Z,20.85
2022-07-28T08:17:40.150Z,20.90
2022-07-28T08:20:14.388Z,20.95
2022-07-28T08:22:57.586Z,21.03
2022-07-28T08:25:31.602Z,21.09
2022-07-28T08:27:58.326Z,21.15
2022-07-28T08:30:33.112Z,21.22
2022-07-28T08:33:00.490Z,21.29
2022-07-28T08:35:35.613Z,21.33
2022-07-28T08:38:04.824Z,21.38
2022-07-28T08:40:32.649Z,21.46
2022-07-28T08:43:18.383Z,21.54
2022-07-28T08:45:47.976Z,21.62
2022-07-28T08:48:24.352Z,21.70
2022-07-28T08:50:52.428Z,21.80
2022-07-28T08:53:28.360Z,21.87
2022-07-28T08:55:56.482Z,21.92
2022-07-28T08:58:30.362Z,21.96
2022-07-28T09:00:57.645Z,22.00
2022-07-28T09:03:24.867Z,22.07
2022-07-28T09:05:59.513Z,22.12
2022-07-28T09:08:26.697Z,22.19
2022-07-28T09:11:06.372Z,22.25
2022-07-28T09:13:39.481Z,22.39
2022-07-28T09:16:13.367Z,22.47
2022-07-28T09:18:40.257Z,22.55
2022-07-28T09:21:07.243Z,22.61
2022-07-28T09:23:51.397Z,22.67
2022-07-28T09:26:18.230Z,22.68
2022-07-28T09:28:56.453Z,22.74
2022-07-28T09:31:25.319Z,22.84
2022-07-28T09:34:04.386Z,22.95
2022-07-28T09:36:47.382Z,23.04
2022-07-28T09:39:34.851Z,23.15
2022-07-28T09:42:09.369Z,23.27
2022-07-28T09:44:36.147Z,23.33
2022-07-28T09:47:31.539Z,23.42
2022-07-28T09:49:58.885Z,23.48
2022-07-28T09:52:31.042Z,23.55
2022-07-28T09:55:08.371Z,23.60
2022-07-28T09:57:37.016Z,23.75
2022-07-28T10:00:20.417Z,23.81
2022-07-28T10:02:50.028Z,23.93
2022-07-28T10:05:24.353Z,24.00
2022-07-28T10:07:51.135Z,24.18
2022-07-28T10:10:38.369Z,24.24
2022-07-28T10:13:06.298Z,24.39
2022-07-28T10:15:58.414Z,24.45
2022-07-28T10:18:25.194Z,24.47
2022-07-28T10:20:58.355Z,24.49
2022-07-28T10:23:31.353Z,24.60
2022-07-28T10:25:59.293Z,24.73
2022-07-28T10:28:33.395Z,24.82
2022-07-28T10:31:03.112Z,24.92
2022-07-28T10:33:39.333Z,24.98
2022-07-28T10:36:07.345Z,25.00
2022-07-28T10:38:35.826Z,25.05
2022-07-28T10:41:10.348Z,25.12
2022-07-28T10:43:45.621Z,25.17
2022-07-28T10:46:16.397Z,25.24
2022-07-28T10:48:51.405Z,25.31
2022-07-28T10:51:28.546Z,25.38
2022-07-28T10:54:24.901Z,25.46
2022-07-28T10:57:04.701Z,25.55
2022-07-28T11:00:20.851Z,25.59
2022-07-28T11:03:01.071Z,25.65
2022-07-28T11:05:38.331Z,25.73
2022-07-28T11:08:34.372Z,25.81
2022-07-28T11:11:21.344Z,25.89
2022-07-28T11:13:54.353Z,25.96
2022-07-28T11:16:31.790Z,26.02
2022-07-28T11:19:04.839Z,26.07
2022-07-28T11:21:43.626Z,26.17
2022-07-28T11:24:10.529Z,26.22
2022-07-28T11:26:51.375Z,26.24
2022-07-28T11:29:18.742Z,26.24
2022-07-28T11:31:55.471Z,26.24
2022-07-28T11:34:24.964Z,26.21
2022-07-28T11:37:15.182Z,26.21
2022-07-28T11:39:49.360Z,26.29
2022-07-28T11:42:31.176Z,26.41
2022-07-28T11:45:39.273Z,26.48
2022-07-28T11:48:18.752Z,26.41
2022-07-28T11:51:10.391Z,26.55
2022-07-28T11:53:52.409Z,26.57
2022-07-28T11:56:25.157Z,26.60
2022-07-28T11:59:09.332Z,26.55
2022-07-28T12:01:38.193Z,26.66
2022-07-28T12:04:21.365Z,26.71
2022-07-28T12:06:57.340Z,26.76
2022-07-28T12:09:41.887Z,26.73
2022-07-28T12:12:15.350Z,26.70
2022-07-28T12:14:43.434Z,26.82
2022-07-28T12:17:17.334Z,26.87
2022-07-28T12:19:44.876Z,26.94
2022-07-28T12:22:15.562Z,27.00
2022-07-28T12:24:49.340Z,27.05
2022-07-28T12:27:24.992Z,27.06
2022-07-28T12:29:57.974Z,27.06
2022-07-28T12:32:41.362Z,27.13
2022-07-28T12:35:08.449Z,27.23
2022-07-28T12:37:41.348Z,27.28
2022-07-28T12:40:10.655Z,27.29
2022-07-28T12:42:44.338Z,27.29
2022-07-28T12:45:12.530Z,27.36
2022-07-28T12:47:46.337Z,27.41
2022-07-28T12:50:17.271Z,27.45
2022-07-28T12:53:07.500Z,27.54
2022-07-28T12:55:41.326Z,27.69
2022-07-28T12:58:27.498Z,27.79
2022-07-28T13:00:55.147Z,27.84
2022-07-28T13:03:33.332Z,27.96
2022-07-28T13:06:10.271Z,28.00
2022-07-28T13:09:01.480Z,28.10
2022-07-28T13:11:47.182Z,28.08
2022-07-28T13:14:50.342Z,28.12
2022-07-28T13:17:18.334Z,28.11
2022-07-28T13:19:52.353Z,28.18
2022-07-28T13:22:36.343Z,28.18
2022-07-28T13:25:03.391Z,28.16
2022-07-28T13:27:39.341Z,28.17
2022-07-28T13:30:07.762Z,28.19
2022-07-28T13:32:41.630Z,28.23
2022-07-28T13:35:19.243Z,28.09
2022-07-28T13:37:48.516Z,28.05
2022-07-28T13:40:22.369Z,27.92
2022-07-28T13:42:53.115Z,27.86
2022-07-28T13:45:30.314Z,27.89
2022-07-28T13:47:57.232Z,27.90
2022-07-28T13:50:30.486Z,27.72
2022-07-28T13:52:57.413Z,27.71
2022-07-28T13:55:32.320Z,27.70
2022-07-28T13:57:59.024Z,27.70
2022-07-28T14:00:33.411Z,27.67
2022-07-28T14:03:00.298Z,27.62
2022-07-28T14:05:33.767Z,27.59
2022-07-28T14:08:01.487Z,27.50
2022-07-28T14:10:42.318Z,27.57
2022-07-28T14:13:22.213Z,27.61
2022-07-28T14:16:02.110Z,27.61
2022-07-28T14:18:29.421Z,27.62
2022-07-28T14:20:56.187Z,27.61
2022-07-28T14:23:29.337Z,27.67
2022-07-28T14:26:18.342Z,27.70
2022-07-28T14:28:49.344Z,27.69
2022-07-28T14:31:18.070Z,27.64
2022-07-28T14:33:54.729Z,27.62
2022-07-28T14:36:21.917Z,27.60
2022-07-28T14:38:55.347Z,27.61
2022-07-28T14:41:22.309Z,27.63
2022-07-28T14:43:49.047Z,27.68
2022-07-28T14:46:29.504Z,27.66
2022-07-28T14:48:57.089Z,27.52
2022-07-28T14:51:30.331Z,27.57
2022-07-28T14:53:57.931Z,27.58
2022-07-28T14:56:32.380Z,27.61
2022-07-28T14:58:59.136Z,27.62
2022-07-28T15:01:26.927Z,27.62
2022-07-28T15:04:00.316Z,27.61
2022-07-28T15:06:33.315Z,27.57
2022-07-28T15:09:08.541Z,27.52
2022-07-28T15:11:51.330Z,27.52
2022-07-28T15:14:24.902Z,27.47
2022-07-28T15:16:59.317Z,27.48
2022-07-28T15:19:26.255Z,27.42
2022-07-28T15:21:59.334Z,27.41
2022-07-28T15:24:37.335Z,27.43
2022-07-28T15:27:04.247Z,27.43
2022-07-28T15:29:37.354Z,27.45
2022-07-28T15:32:05.222Z,27.41
2022-07-28T15:34:39.397Z,27.33
2022-07-28T15:37:06.351Z,27.30
2022-07-28T15:39:44.768Z,27.32
2022-07-28T15:42:12.129Z,27.20
2022-07-28T15:44:45.338Z,27.10
2022-07-28T15:47:12.118Z,27.07
2022-07-28T15:49:45.340Z,27.00
2022-07-28T15:52:14.053Z,26.98
2022-07-28T15:54:40.855Z,26.94
2022-07-28T15:57:14.389Z,26.88
2022-07-28T15:59:49.212Z,26.86
2022-07-28T16:02:23.433Z,26.83
2022-07-28T16:04:53.851Z,26.84
2022-07-28T16:07:31.333Z,26.77
2022-07-28T16:10:04.373Z,26.76
2022-07-28T16:12:44.333Z,26.81
2022-07-28T16:15:17.346Z,26.82
2022-07-28T16:17:51.583Z,26.80
2022-07-28T16:20:18.731Z,26.80
2022-07-28T16:22:52.347Z,26.83
2022-07-28T16:25:20.737Z,26.84
2022-07-28T16:27:54.344Z,26.75
2022-07-28T16:30:21.172Z,26.81
2022-07-28T16:32:54.407Z,27.05
2022-07-28T16:35:21.249Z,27.29
2022-07-28T16:37:57.603Z,27.57
2022-07-28T16:40:30.332Z,27.77
2022-07-28T16:43:01.344Z,27.81
2022-07-28T16:45:35.352Z,27.76
2022-07-28T16:48:09.340Z,27.88
2022-07-28T16:50:36.142Z,27.81
2022-07-28T16:53:15.373Z,27.88
2022-07-28T16:55:49.328Z,27.87
2022-07-28T16:58:18.071Z,27.97
2022-07-28T17:00:44.728Z,28.02
2022-07-28T17:03:18.311Z,27.96
2022-07-28T17:05:45.372Z,27.94
2022-07-28T17:08:33.324Z,27.86
2022-07-28T17:11:06.506Z,27.80
2022-07-28T17:13:44.812Z,27.79
2022-07-28T17:16:12.134Z,27.68
2022-07-28T17:18:45.343Z,27.65
2022-07-28T17:21:13.296Z,27.48
2022-07-28T17:23:46.303Z,27.42
2022-07-28T17:29:06.322Z,27.28
2022-07-28T17:31:33.885Z,27.19
2022-07-28T17:34:07.334Z,27.05
2022-07-28T17:36:35.472Z,26.90
2022-07-28T17:39:09.339Z,26.71
2022-07-28T17:41:36.187Z,26.62
2022-07-28T17:44:09.325Z,26.47
2022-07-28T17:46:36.177Z,26.33
2022-07-28T17:49:10.374Z,26.24
2022-07-28T17:51:44.330Z,26.20
2022-07-28T17:54:14.392Z,26.15
2022-07-28T17:56:41.786Z,26.14
2022-07-28T17:59:15.321Z,26.11
2022-07-28T18:01:45.363Z,26.06
2022-07-28T18:04:19.891Z,26.03
2022-07-28T18:06:46.885Z,25.98
2022-07-28T18:09:14.338Z,25.95
2022-07-28T18:11:57.653Z,25.90
2022-07-28T18:14:31.837Z,25.87
2022-07-28T18:17:05.339Z,25.82
2022-07-28T18:19:42.147Z,25.78
2022-07-28T18:22:11.731Z,25.73
2022-07-28T18:24:45.492Z,25.67
2022-07-28T18:27:19.309Z,25.63
2022-07-28T18:29:47.005Z,25.59
2022-07-28T18:32:24.346Z,25.57
2022-07-28T18:34:51.266Z,25.51
2022-07-28T18:37:24.495Z,25.45
2022-07-28T18:39:51.418Z,25.40
2022-07-28T18:42:24.494Z,25.32
2022-07-28T18:44:51.266Z,25.27
2022-07-28T18:47:24.333Z,25.27
2022-07-28T18:49:51.425Z,25.23
2022-07-28T18:52:25.308Z,25.16
2022-07-28T18:54:52.964Z,25.13
2022-07-28T18:57:26.315Z,25.08
2022-07-28T18:59:53.017Z,25.03
2022-07-28T19:02:26.739Z,24.99
2022-07-28T19:04:55.385Z,24.98
2022-07-28T19:07:28.695Z,24.95
2022-07-28T19:09:55.477Z,24.92
2022-07-28T19:12:37.297Z,24.88
2022-07-28T19:15:17.320Z,24.85
2022-07-28T19:17:44.040Z,24.81
2022-07-28T19:20:18.288Z,24.75
2022-07-28T19:22:45.109Z,24.71
2022-07-28T19:25:12.004Z,24.67
2022-07-28T19:27:45.313Z,24.62
2022-07-28T19:30:19.302Z,24.57
2022-07-28T19:32:52.301Z,24.57
2022-07-28T19:35:25.315Z,24.53
2022-07-28T19:37:58.306Z,24.50
2022-07-28T19:40:25.553Z,24.47
2022-07-28T19:43:00.464Z,24.42
2022-07-28T19:45:33.320Z,24.39
2022-07-28T19:48:00.942Z,24.33
2022-07-28T19:50:34.323Z,24.32
2022-07-28T19:53:01.775Z,24.31
2022-07-28T19:55:38.308Z,24.28
2022-07-28T19:58:06.215Z,24.24
2022-07-28T20:00:40.343Z,24.21
2022-07-28T20:04:03.693Z,24.18
2022-07-28T20:06:02.424Z,24.16
2022-07-28T20:08:35.491Z,24.16
2022-07-28T20:11:15.309Z,24.12
2022-07-28T20:13:49.532Z,24.12
2022-07-28T20:16:23.358Z,24.06
2022-07-28T20:18:51.038Z,24.05
2022-07-28T20:21:26.557Z,24.01
2022-07-28T20:23:57.262Z,23.99
2022-07-28T20:26:34.491Z,23.97
2022-07-28T20:29:01.830Z,23.91
2022-07-28T20:31:29.071Z,23.90
2022-07-28T20:34:03.311Z,23.86
2022-07-28T20:36:36.325Z,23.85
2022-07-28T20:39:15.731Z,23.83
2022-07-28T20:41:56.296Z,23.81
2022-07-28T20:44:30.612Z,23.79
2022-07-28T20:47:08.299Z,23.75
2022-07-28T20:49:35.157Z,23.72
2022-07-28T20:52:08.293Z,23.72
2022-07-28T20:54:34.997Z,23.68
2022-07-28T20:57:08.293Z,23.67
2022-07-28T20:59:34.921Z,23.64
2022-07-28T21:02:02.185Z,23.64
2022-07-28T21:04:35.358Z,23.60
2022-07-28T21:07:04.272Z,23.61
2022-07-28T21:09:37.305Z,23.58
2022-07-28T21:12:18.293Z,23.56
2022-07-28T21:14:58.289Z,23.51
2022-07-28T21:17:31.291Z,23.52
2022-07-28T21:20:04.303Z,23.52
2022-07-28T21:22:31.120Z,23.51
2022-07-28T21:25:05.308Z,23.49
2022-07-28T21:27:58.290Z,23.44
2022-07-28T21:30:27.655Z,23.48
2022-07-28T21:33:01.373Z,23.46
2022-07-28T21:35:28.355Z,23.47
2022-07-28T21:38:02.321Z,23.42
2022-07-28T21:40:29.451Z,23.40
2022-07-28T21:43:02.273Z,23.42
2022-07-28T21:45:29.049Z,23.39
2022-07-28T21:48:02.456Z,23.39
2022-07-28T21:50:29.237Z,23.36
2022-07-28T21:53:02.302Z,23.39
2022-07-28T21:55:29.119Z,23.40
2022-07-28T21:58:02.293Z,23.40
2022-07-28T22:00:36.355Z,23.38
2022-07-28T22:03:03.400Z,23.38
2022-07-28T22:05:36.474Z,23.36
2022-07-28T22:08:10.355Z,23.33
2022-07-28T22:10:43.511Z,23.33
2022-07-28T22:13:17.459Z,23.32
2022-07-28T22:15:45.028Z,23.29
2022-07-28T22:18:18.283Z,23.29
2022-07-28T22:20:47.351Z,23.29
2022-07-28T22:23:29.499Z,23.28
2022-07-28T22:25:56.982Z,23.24
2022-07-28T22:28:30.771Z,23.21
2022-07-28T22:31:08.645Z,23.20
2022-07-28T22:33:44.288Z,23.18
2022-07-28T22:36:11.673Z,23.16
2022-07-28T22:38:45.297Z,23.14
2022-07-28T22:41:18.290Z,23.12
2022-07-28T22:43:45.051Z,23.07
2022-07-28T22:46:18.320Z,23.03
2022-07-28T22:48:45.156Z,23.00
2022-07-28T22:51:20.295Z,22.97
2022-07-28T22:53:47.633Z,22.95
2022-07-28T22:56:21.290Z,22.91
2022-07-28T22:58:48.188Z,22.87
2022-07-28T23:01:21.356Z,22.87
2022-07-28T23:03:48.498Z,22.83
2022-07-28T23:06:22.265Z,22.81
2022-07-28T23:08:49.061Z,22.79
2022-07-28T23:11:29.300Z,22.77
2022-07-28T23:14:02.489Z,22.76
2022-07-28T23:16:36.326Z,22.74
2022-07-28T23:19:03.084Z,22.71
2022-07-28T23:21:37.292Z,22.67
2022-07-28T23:24:11.827Z,22.66
2022-07-28T23:26:38.931Z,22.61
2022-07-28T23:29:12.288Z,22.60
2022-07-28T23:31:39.082Z,22.60
2022-07-28T23:34:05.861Z,22.59
2022-07-28T23:36:39.281Z,22.58
2022-07-28T23:39:12.295Z,22.53
2022-07-28T23:41:39.043Z,22.50
2022-07-28T23:44:05.798Z,22.45
2022-07-28T23:46:39.321Z,22.45
2022-07-28T23:49:07.309Z,22.43
2022-07-28T23:51:47.403Z,22.40
2022-07-28T23:54:15.777Z,22.42
2022-07-28T23:56:50.448Z,22.42
2022-07-28T23:59:17.185Z,22.43
